Observation data for Friona on 08/07/2020      Previous  Date  Next       Current Mesonet Observations  Soil Data  Daily Summary Page  Observations in Plain Language
KFAS 070500Z 19010KT 24/13 A3004 RMK A01 T02370126  RH  052%=      5-min Rain = 0
KFAS 070505Z 19010KT 23/13 A3004 RMK A01 T02340128  RH  053%=      5-min Rain = 0
KFAS 070510Z 19009KT 23/13 A3004 RMK A01 T02320130  RH  055%=      5-min Rain = 0
KFAS 070515Z 19009KT 23/13 A3004 RMK A01 T02300132  RH  056%=      5-min Rain = 0
KFAS 070520Z 19010KT 23/13 A3004 RMK A01 T02300133  RH  056%=      5-min Rain = 0
KFAS 070525Z 19010KT 23/13 A3004 RMK A01 T02300133  RH  057%=      5-min Rain = 0
KFAS 070530Z 19010KT 23/13 A3004 RMK A01 T02300133  RH  057%=      5-min Rain = 0
KFAS 070535Z 19011KT 23/13 A3004 RMK A01 T02310132  RH  056%=      5-min Rain = 0
KFAS 070540Z 19010KT 23/13 A3004 RMK A01 T02310131  RH  055%=      5-min Rain = 0
KFAS 070545Z 19011KT 23/13 A3004 RMK A01 T02320130  RH  055%=      5-min Rain = 0
KFAS 070550Z 18011KT 23/13 A3004 RMK A01 T02330129  RH  054%=      5-min Rain = 0
KFAS 070555Z 19010KT 23/13 A3003 RMK A01 T02320129  RH  054%=      5-min Rain = 0
KFAS 070600Z 19010KT 23/13 A3003 RMK A01 T02320128  RH  054%=      5-min Rain = 0
KFAS 070605Z 19010KT 23/13 A3003 RMK A01 T02310128  RH  054%=      5-min Rain = 0
KFAS 070610Z 19009KT 23/13 A3004 RMK A01 T02300127  RH  054%=      5-min Rain = 0
KFAS 070615Z 19009KT 23/13 A3003 RMK A01 T02290127  RH  055%=      5-min Rain = 0
KFAS 070620Z 19009KT 23/13 A3004 RMK A01 T02280127  RH  055%=      5-min Rain = 0
KFAS 070625Z 18009KT 23/13 A3003 RMK A01 T02260127  RH  056%=      5-min Rain = 0
KFAS 070630Z 19009KT 23/13 A3003 RMK A01 T02260126  RH  055%=      5-min Rain = 0
KFAS 070635Z 18009KT 22/13 A3003 RMK A01 T02240126  RH  056%=      5-min Rain = 0
KFAS 070640Z 19009KT 22/13 A3003 RMK A01 T02220127  RH  057%=      5-min Rain = 0
KFAS 070645Z 19009KT 22/13 A3003 RMK A01 T02200127  RH  058%=      5-min Rain = 0
KFAS 070650Z 19009KT 22/13 A3003 RMK A01 T02190126  RH  058%=      5-min Rain = 0
KFAS 070655Z 19010KT 22/13 A3003 RMK A01 T02180126  RH  058%=      5-min Rain = 0
KFAS 070700Z 19010KT 22/13 A3003 RMK A01 T02190125  RH  057%=      5-min Rain = 0
KFAS 070705Z 19010KT 22/12 A3003 RMK A01 T02190124  RH  057%=      5-min Rain = 0
KFAS 070710Z 19010KT 22/12 A3003 RMK A01 T02190123  RH  057%=      5-min Rain = 0
KFAS 070715Z 19009KT 22/12 A3003 RMK A01 T02190123  RH  057%=      5-min Rain = 0
KFAS 070720Z 19008KT 22/12 A3003 RMK A01 T02170123  RH  057%=      5-min Rain = 0
KFAS 070725Z 19008KT 22/12 A3003 RMK A01 T02170123  RH  057%=      5-min Rain = 0
KFAS 070730Z 19008KT 22/12 A3003 RMK A01 T02170122  RH  057%=      5-min Rain = 0
KFAS 070735Z 19007KT 21/12 A3003 RMK A01 T02140123  RH  058%=      5-min Rain = 0
KFAS 070740Z 19006KT 21/12 A3003 RMK A01 T02110123  RH  059%=      5-min Rain = 0
KFAS 070745Z 20006KT 21/12 A3003 RMK A01 T02050121  RH  061%=      5-min Rain = 0
KFAS 070750Z 19007KT 20/12 A3003 RMK A01 T02010121  RH  062%=      5-min Rain = 0
KFAS 070755Z 20008KT 20/12 A3003 RMK A01 T01990121  RH  063%=      5-min Rain = 0
KFAS 070800Z 20008KT 20/12 A3003 RMK A01 T01990121  RH  063%=      5-min Rain = 0
KFAS 070805Z 20008KT 20/12 A3003 RMK A01 T01990121  RH  063%=      5-min Rain = 0
KFAS 070810Z 20008KT 20/12 A3003 RMK A01 T02000120  RH  062%=      5-min Rain = 0
KFAS 070815Z 20008KT 20/12 A3003 RMK A01 T02010120  RH  062%=      5-min Rain = 0
KFAS 070820Z 19007KT 20/12 A3003 RMK A01 T02030120  RH  061%=      5-min Rain = 0
KFAS 070825Z 18007KT 21/12 A3003 RMK A01 T02060121  RH  060%=      5-min Rain = 0
KFAS 070830Z 18007KT 21/12 A3003 RMK A01 T02080122  RH  060%=      5-min Rain = 0
KFAS 070835Z 18007KT 21/12 A3003 RMK A01 T02070121  RH  060%=      5-min Rain = 0
KFAS 070840Z 17006KT 21/12 A3003 RMK A01 T02050121  RH  061%=      5-min Rain = 0
KFAS 070845Z 18007KT 20/12 A3003 RMK A01 T02020123  RH  063%=      5-min Rain = 0
KFAS 070850Z 18007KT 20/12 A3004 RMK A01 T02040122  RH  062%=      5-min Rain = 0
KFAS 070855Z 18007KT 21/12 A3004 RMK A01 T02110123  RH  059%=      5-min Rain = 0
KFAS 070900Z 18007KT 21/12 A3004 RMK A01 T02130123  RH  059%=      5-min Rain = 0
KFAS 070905Z 18007KT 21/12 A3004 RMK A01 T02130123  RH  058%=      5-min Rain = 0
KFAS 070910Z 18007KT 21/12 A3004 RMK A01 T02140124  RH  058%=      5-min Rain = 0
KFAS 070915Z 19007KT 21/12 A3005 RMK A01 T02140124  RH  059%=      5-min Rain = 0
KFAS 070920Z 20007KT 21/13 A3005 RMK A01 T02140125  RH  059%=      5-min Rain = 0
KFAS 070925Z 20007KT 21/13 A3005 RMK A01 T02110125  RH  060%=      5-min Rain = 0
KFAS 070930Z 20007KT 21/12 A3005 RMK A01 T02080124  RH  061%=      5-min Rain = 0
KFAS 070935Z 20007KT 21/12 A3005 RMK A01 T02070124  RH  061%=      5-min Rain = 0
KFAS 070940Z 21007KT 21/13 A3005 RMK A01 T02070125  RH  062%=      5-min Rain = 0
KFAS 070945Z 21007KT 21/13 A3005 RMK A01 T02060126  RH  062%=      5-min Rain = 0
KFAS 070950Z 21008KT 21/13 A3005 RMK A01 T02080126  RH  062%=      5-min Rain = 0
KFAS 070955Z 21008KT 21/13 A3005 RMK A01 T02110126  RH  061%=      5-min Rain = 0
KFAS 071000Z 22010KT 22/13 A3005 RMK A01 T02150127  RH  059%=      5-min Rain = 0
KFAS 071005Z 21010KT 22/13 A3005 RMK A01 T02220128  RH  058%=      5-min Rain = 0
KFAS 071010Z 21010KT 22/13 A3005 RMK A01 T02240130  RH  058%=      5-min Rain = 0
KFAS 071015Z 21010KT 22/13 A3005 RMK A01 T02240130  RH  057%=      5-min Rain = 0
KFAS 071020Z 21010KT 23/13 A3005 RMK A01 T02250130  RH  057%=      5-min Rain = 0
KFAS 071025Z 21011KT 22/13 A3005 RMK A01 T02240131  RH  058%=      5-min Rain = 0
KFAS 071030Z 21010G15KT 22/13 A3005 RMK A01 T02230131  RH  058%=      5-min Rain = 0
KFAS 071035Z 21009KT 22/13 A3005 RMK A01 T02210132  RH  059%=      5-min Rain = 0
KFAS 071040Z 21010KT 22/13 A3005 RMK A01 T02200132  RH  059%=      5-min Rain = 0
KFAS 071045Z 21009KT 22/13 A3006 RMK A01 T02190132  RH  060%=      5-min Rain = 0
KFAS 071050Z 21008KT 22/13 A3006 RMK A01 T02170132  RH  061%=      5-min Rain = 0
KFAS 071055Z 21009KT 21/13 A3006 RMK A01 T02140133  RH  062%=      5-min Rain = 0
KFAS 071100Z 20009KT 21/13 A3006 RMK A01 T02110134  RH  064%=      5-min Rain = 0
KFAS 071105Z 20009KT 21/13 A3005 RMK A01 T02090134  RH  065%=      5-min Rain = 0
KFAS 071110Z 20008KT 21/14 A3005 RMK A01 T02070135  RH  066%=      5-min Rain = 0
KFAS 071115Z 20008KT 21/14 A3005 RMK A01 T02050135  RH  067%=      5-min Rain = 0
KFAS 071120Z 21008KT 20/14 A3006 RMK A01 T02030135  RH  068%=      5-min Rain = 0
KFAS 071125Z 21008KT 20/14 A3006 RMK A01 T02030135  RH  068%=      5-min Rain = 0
KFAS 071130Z 21009KT 21/14 A3006 RMK A01 T02060135  RH  067%=      5-min Rain = 0
KFAS 071135Z 21008KT 21/14 A3006 RMK A01 T02080136  RH  066%=      5-min Rain = 0
KFAS 071140Z 21008KT 21/14 A3006 RMK A01 T02090136  RH  066%=      5-min Rain = 0
KFAS 071145Z 21008KT 21/14 A3006 RMK A01 T02100137  RH  066%=      5-min Rain = 0
KFAS 071150Z 21008KT 21/14 A3006 RMK A01 T02120137  RH  065%=      5-min Rain = 0
KFAS 071155Z 20008KT 21/14 A3006 RMK A01 T02130138  RH  065%=      5-min Rain = 0
KFAS 071200Z 21008KT 21/14 A3007 RMK A01 T02120138  RH  065%=      5-min Rain = 0
KFAS 071205Z 21007KT 21/14 A3007 RMK A01 T02120138  RH  065%=      5-min Rain = 0
KFAS 071210Z 22009KT 21/14 A3007 RMK A01 T02130139  RH  065%=      5-min Rain = 0
KFAS 071215Z 22010KT 22/14 A3007 RMK A01 T02160139  RH  064%=      5-min Rain = 0
KFAS 071220Z 22009KT 22/14 A3007 RMK A01 T02170139  RH  064%=      5-min Rain = 0
KFAS 071225Z 22009KT 22/14 A3007 RMK A01 T02180140  RH  064%=      5-min Rain = 0
KFAS 071230Z 21011KT 22/14 A3007 RMK A01 T02190140  RH  063%=      5-min Rain = 0
KFAS 071235Z 21012KT 22/14 A3007 RMK A01 T02190140  RH  063%=      5-min Rain = 0
KFAS 071240Z 21011KT 22/14 A3007 RMK A01 T02180140  RH  064%=      5-min Rain = 0
KFAS 071245Z 21010KT 22/14 A3007 RMK A01 T02170140  RH  064%=      5-min Rain = 0
KFAS 071250Z 22010KT 22/14 A3007 RMK A01 T02180140  RH  064%=      5-min Rain = 0
KFAS 071255Z 22010KT 22/14 A3007 RMK A01 T02180140  RH  064%=      5-min Rain = 0
KFAS 071300Z 22009KT 22/14 A3008 RMK A01 T02190141  RH  064%=      5-min Rain = 0
KFAS 071305Z 22008KT 22/14 A3008 RMK A01 T02210141  RH  063%=      5-min Rain = 0
KFAS 071310Z 21008KT 22/14 A3008 RMK A01 T02210142  RH  063%=      5-min Rain = 0
KFAS 071315Z 21010KT 22/14 A3007 RMK A01 T02210142  RH  063%=      5-min Rain = 0
KFAS 071320Z 21010KT 22/14 A3007 RMK A01 T02210142  RH  063%=      5-min Rain = 0
KFAS 071325Z 21010KT 22/14 A3007 RMK A01 T02220142  RH  063%=      5-min Rain = 0
KFAS 071330Z 21010KT 23/14 A3007 RMK A01 T02250143  RH  062%=      5-min Rain = 0
KFAS 071335Z 21009KT 23/14 A3008 RMK A01 T02270144  RH  062%=      5-min Rain = 0
KFAS 071340Z 21008KT 23/15 A3008 RMK A01 T02300145  RH  061%=      5-min Rain = 0
KFAS 071345Z 21010KT 23/15 A3008 RMK A01 T02340146  RH  060%=      5-min Rain = 0
KFAS 071350Z 21011KT 24/15 A3008 RMK A01 T02400148  RH  059%=      5-min Rain = 0
KFAS 071355Z 21013KT 25/15 A3009 RMK A01 T02450148  RH  057%=      5-min Rain = 0
KFAS 071400Z 21014KT 25/15 A3009 RMK A01 T02460148  RH  057%=      5-min Rain = 0
KFAS 071405Z 21015KT 25/15 A3008 RMK A01 T02520148  RH  055%=      5-min Rain = 0
KFAS 071410Z 21015KT 26/15 A3008 RMK A01 T02580150  RH  053%=      5-min Rain = 0
KFAS 071415Z 20017KT 26/15 A3008 RMK A01 T02620151  RH  053%=      5-min Rain = 0
KFAS 071420Z 21018KT 26/15 A3008 RMK A01 T02630151  RH  052%=      5-min Rain = 0
KFAS 071425Z 21019G25KT 27/15 A3008 RMK A01 T02660151  RH  052%=      5-min Rain = 0
KFAS 071430Z 21018G23KT 27/15 A3009 RMK A01 T02700152  RH  051%=      5-min Rain = 0
KFAS 071435Z 21017G22KT 27/15 A3009 RMK A01 T02730153  RH  050%=      5-min Rain = 0
KFAS 071440Z 22017G23KT 28/15 A3009 RMK A01 T02770153  RH  049%=      5-min Rain = 0
KFAS 071445Z 22016KT 28/15 A3009 RMK A01 T02790153  RH  048%=      5-min Rain = 0
KFAS 071450Z 21014G19KT 28/15 A3009 RMK A01 T02840154  RH  048%=      5-min Rain = 0
KFAS 071455Z 20017KT 28/15 A3008 RMK A01 T02790154  RH  049%=      5-min Rain = 0
KFAS 071500Z 21016KT 27/15 A3008 RMK A01 T02720153  RH  050%=      5-min Rain = 0
KFAS 071505Z 21015KT 27/15 A3008 RMK A01 T02690153  RH  051%=      5-min Rain = 0
KFAS 071510Z 21016G21KT 27/15 A3009 RMK A01 T02670152  RH  051%=      5-min Rain = 0
KFAS 071515Z 21016G21KT 27/15 A3009 RMK A01 T02740153  RH  050%=      5-min Rain = 0
KFAS 071520Z 21018KT 28/15 A3009 RMK A01 T02750152  RH  049%=      5-min Rain = 0
KFAS 071525Z 21017G22KT 27/15 A3009 RMK A01 T02730152  RH  050%=      5-min Rain = 0
KFAS 071530Z 21016G21KT 28/15 A3009 RMK A01 T02790154  RH  049%=      5-min Rain = 0
KFAS 071535Z 21016G21KT 29/15 A3009 RMK A01 T02850154  RH  047%=      5-min Rain = 0
KFAS 071540Z 20017KT 28/15 A3009 RMK A01 T02840154  RH  047%=      5-min Rain = 0
KFAS 071545Z 21016KT 29/16 A3009 RMK A01 T02870155  RH  047%=      5-min Rain = 0
KFAS 071550Z 21015KT 29/16 A3009 RMK A01 T02860155  RH  047%=      5-min Rain = 0
KFAS 071555Z 21016KT 29/16 A3009 RMK A01 T02880155  RH  047%=      5-min Rain = 0
KFAS 071600Z 20016KT 29/16 A3009 RMK A01 T02910155  RH  046%=      5-min Rain = 0
KFAS 071605Z 21015KT 29/15 A3009 RMK A01 T02930154  RH  045%=      5-min Rain = 0
KFAS 071610Z 21014KT 30/15 A3009 RMK A01 T03020154  RH  043%=      5-min Rain = 0
KFAS 071615Z 21015KT 30/15 A3009 RMK A01 T02990152  RH  043%=      5-min Rain = 0
KFAS 071620Z 21014KT 30/15 A3008 RMK A01 T03040152  RH  042%=      5-min Rain = 0
KFAS 071625Z 22014G19KT 31/15 A3008 RMK A01 T03100148  RH  039%=      5-min Rain = 0
KFAS 071630Z 22014KT 32/15 A3008 RMK A01 T03150149  RH  038%=      5-min Rain = 0
KFAS 071635Z 20015KT 31/15 A3008 RMK A01 T03140147  RH  038%=      5-min Rain = 0
KFAS 071640Z 20015KT 30/15 A3009 RMK A01 T03040145  RH  040%=      5-min Rain = 0
KFAS 071645Z 21014KT 30/15 A3009 RMK A01 T03010145  RH  040%=      5-min Rain = 0
KFAS 071650Z 21014KT 31/14 A3009 RMK A01 T03060142  RH  038%=      5-min Rain = 0
KFAS 071655Z 20014G19KT 32/14 A3009 RMK A01 T03150143  RH  037%=      5-min Rain = 0
KFAS 071700Z 21014G19KT 31/14 A3009 RMK A01 T03140138  RH  036%=      5-min Rain = 0
KFAS 071705Z 20013G19KT 32/14 A3008 RMK A01 T03190138  RH  035%=      5-min Rain = 0
KFAS 071710Z 20015KT 32/14 A3008 RMK A01 T03210135  RH  034%=      5-min Rain = 0
KFAS 071715Z 21015KT 32/13 A3008 RMK A01 T03200133  RH  033%=      5-min Rain = 0
KFAS 071720Z 20013KT 32/13 A3008 RMK A01 T03190133  RH  033%=      5-min Rain = 0
KFAS 071725Z 21014G19KT 32/13 A3008 RMK A01 T03240132  RH  032%=      5-min Rain = 0
KFAS 071730Z 23013G18KT 33/13 A3008 RMK A01 T03270126  RH  031%=      5-min Rain = 0
KFAS 071735Z 22013G18KT 33/13 A3008 RMK A01 T03290125  RH  030%=      5-min Rain = 0
KFAS 071740Z 22012KT 34/12 A3008 RMK A01 T03390124  RH  028%=      5-min Rain = 0
KFAS 071745Z 21013G19KT 35/12 A3008 RMK A01 T03460124  RH  027%=      5-min Rain = 0
KFAS 071750Z 23012G18KT 35/12 A3008 RMK A01 T03480123  RH  027%=      5-min Rain = 0
KFAS 071755Z 23012G20KT 35/12 A3007 RMK A01 T03490124  RH  027%=      5-min Rain = 0
KFAS 071800Z 21011G16KT 35/13 A3007 RMK A01 T03480126  RH  027%=      5-min Rain = 0
KFAS 071805Z 22010KT 35/12 A3007 RMK A01 T03450124  RH  027%=      5-min Rain = 0
KFAS 071810Z 23012G17KT 35/12 A3007 RMK A01 T03460118  RH  026%=      5-min Rain = 0
KFAS 071815Z 25010G16KT 34/12 A3007 RMK A01 T03420117  RH  026%=      5-min Rain = 0
KFAS 071820Z 23010G16KT 35/12 A3006 RMK A01 T03480117  RH  026%=      5-min Rain = 0
KFAS 071825Z 23010KT 35/11 A3006 RMK A01 T03470114  RH  025%=      5-min Rain = 0
KFAS 071830Z 21011G17KT 34/11 A3006 RMK A01 T03440111  RH  025%=      5-min Rain = 0
KFAS 071835Z 23009KT 34/11 A3006 RMK A01 T03420106  RH  025%=      5-min Rain = 0
KFAS 071840Z 21009KT 34/11 A3006 RMK A01 T03440109  RH  025%=      5-min Rain = 0
KFAS 071845Z 20014KT 35/11 A3006 RMK A01 T03470107  RH  024%=      5-min Rain = 0
KFAS 071850Z 21014G20KT 35/11 A3006 RMK A01 T03520105  RH  023%=      5-min Rain = 0
KFAS 071855Z 22010G15KT 36/10 A3006 RMK A01 T03550104  RH  023%=      5-min Rain = 0
KFAS 071900Z 19013G18KT 36/10 A3006 RMK A01 T03580100  RH  022%=      5-min Rain = 0
KFAS 071905Z 20011G18KT 36/09 A3006 RMK A01 T03570092  RH  021%=      5-min Rain = 0
KFAS 071910Z 19013G20KT 36/09 A3006 RMK A01 T03590094  RH  021%=      5-min Rain = 0
KFAS 071915Z 19014G19KT 37/10 A3006 RMK A01 T03660095  RH  020%=      5-min Rain = 0
KFAS 071920Z 20011G16KT 37/10 A3005 RMK A01 T03650096  RH  020%=      5-min Rain = 0
KFAS 071925Z 20013G21KT 37/10 A3005 RMK A01 T03670101  RH  021%=      5-min Rain = 0
KFAS 071930Z 21011G17KT 37/10 A3005 RMK A01 T03680098  RH  020%=      5-min Rain = 0
KFAS 071935Z 21013KT 37/10 A3005 RMK A01 T03660100  RH  021%=      5-min Rain = 0
KFAS 071940Z 20011KT 37/10 A3005 RMK A01 T03650097  RH  020%=      5-min Rain = 0
KFAS 071945Z 18010G15KT 36/10 A3005 RMK A01 T03640097  RH  020%=      5-min Rain = 0
KFAS 071950Z 16010KT 36/10 A3004 RMK A01 T03550095  RH  021%=      5-min Rain = 0
KFAS 071955Z 18011G17KT 35/09 A3004 RMK A01 T03510093  RH  021%=      5-min Rain = 0
KFAS 072000Z 19013G18KT 36/09 A3004 RMK A01 T03580091  RH  020%=      5-min Rain = 0
KFAS 072005Z 18009G17KT 36/09 A3004 RMK A01 T03630091  RH  020%=      5-min Rain = 0
KFAS 072010Z 17014G20KT 37/09 A3004 RMK A01 T03710089  RH  019%=      5-min Rain = 0
KFAS 072015Z 17008G14KT 38/09 A3003 RMK A01 T03760088  RH  018%=      5-min Rain = 0
KFAS 072020Z 18012G20KT 38/09 A3003 RMK A01 T03750087  RH  018%=      5-min Rain = 0
KFAS 072025Z 18011G19KT 37/09 A3003 RMK A01 T03700085  RH  018%=      5-min Rain = 0
KFAS 072030Z 19011G21KT 37/08 A3003 RMK A01 T03720079  RH  017%=      5-min Rain = 0
KFAS 072035Z 19011KT 37/08 A3003 RMK A01 T03720078  RH  017%=      5-min Rain = 0
KFAS 072040Z 19010G19KT 37/08 A3003 RMK A01 T03720080  RH  017%=      5-min Rain = 0
KFAS 072045Z 19011G16KT 38/08 A3003 RMK A01 T03760078  RH  017%=      5-min Rain = 0
KFAS 072050Z 18010KT 37/07 A3003 RMK A01 T03650073  RH  017%=      5-min Rain = 0
KFAS 072055Z 18016G26KT 36/10 A3003 RMK A01 T03600099  RH  021%=      5-min Rain = 0
KFAS 072100Z 18021G27KT 36/11 A3003 RMK A01 T03550114  RH  024%=      5-min Rain = 0
KFAS 072105Z 18021G27KT 36/11 A3003 RMK A01 T03560114  RH  024%=      5-min Rain = 0
KFAS 072110Z 17022G27KT 35/12 A3003 RMK A01 T03480116  RH  025%=      5-min Rain = 0
KFAS 072115Z 18020G25KT 34/12 A3003 RMK A01 T03440117  RH  026%=      5-min Rain = 0
KFAS 072120Z 18019G24KT 34/12 A3003 RMK A01 T03420119  RH  027%=      5-min Rain = 0
KFAS 072125Z 18020G27KT 34/12 A3003 RMK A01 T03410120  RH  027%=      5-min Rain = 0
KFAS 072130Z 18017G24KT 35/12 A3002 RMK A01 T03510119  RH  026%=      5-min Rain = 0
KFAS 072135Z 18022G28KT 36/11 A3002 RMK A01 T03570111  RH  023%=      5-min Rain = 0
KFAS 072140Z 18019G25KT 36/12 A3002 RMK A01 T03590118  RH  024%=      5-min Rain = 0
KFAS 072145Z 17022G28KT 35/12 A3003 RMK A01 T03470121  RH  026%=      5-min Rain = 0
KFAS 072150Z 18021G26KT 34/12 A3003 RMK A01 T03430118  RH  026%=      5-min Rain = 0
KFAS 072155Z 17019G24KT 35/12 A3003 RMK A01 T03490117  RH  026%=      5-min Rain = 0
KFAS 072200Z 17020G27KT 36/12 A3003 RMK A01 T03560115  RH  024%=      5-min Rain = 0
KFAS 072205Z 17021G27KT 35/11 A3003 RMK A01 T03490111  RH  024%=      5-min Rain = 0
KFAS 072210Z 18021G27KT 35/11 A3003 RMK A01 T03510113  RH  025%=      5-min Rain = 0
KFAS 072215Z 18022G29KT 34/11 A3003 RMK A01 T03390105  RH  025%=      5-min Rain = 0
KFAS 072220Z 19021G26KT 34/10 A3003 RMK A01 T03380096  RH  023%=      5-min Rain = 0
KFAS 072225Z 19019G25KT 34/10 A3003 RMK A01 T03400098  RH  023%=      5-min Rain = 0
KFAS 072230Z 19019G25KT 34/10 A3003 RMK A01 T03430104  RH  024%=      5-min Rain = 0
KFAS 072235Z 20020G26KT 34/10 A3003 RMK A01 T03380098  RH  024%=      5-min Rain = 0
KFAS 072240Z 20020G25KT 33/09 A3003 RMK A01 T03300093  RH  024%=      5-min Rain = 0
KFAS 072245Z 20019G25KT 33/09 A3003 RMK A01 T03290092  RH  024%=      5-min Rain = 0
KFAS 072250Z 21019G24KT 33/10 A3003 RMK A01 T03270096  RH  025%=      5-min Rain = 0
KFAS 072255Z 20015KT 33/09 A3003 RMK A01 T03270094  RH  024%=      5-min Rain = 0
KFAS 072300Z 20016KT 33/10 A3004 RMK A01 T03270096  RH  025%=      5-min Rain = 0
KFAS 072305Z 20016KT 32/10 A3004 RMK A01 T03210095  RH  026%=      5-min Rain = 0
KFAS 072310Z 20016KT 32/10 A3004 RMK A01 T03170096  RH  026%=      5-min Rain = 0
KFAS 072315Z 20014KT 31/10 A3004 RMK A01 T03130099  RH  027%=      5-min Rain = 0
KFAS 072320Z 20013KT 31/10 A3004 RMK A01 T03130101  RH  028%=      5-min Rain = 0
KFAS 072325Z 21011KT 31/10 A3004 RMK A01 T03140101  RH  028%=      5-min Rain = 0
KFAS 072330Z 21012KT 31/10 A3004 RMK A01 T03140101  RH  028%=      5-min Rain = 0
KFAS 072335Z 22012KT 31/10 A3004 RMK A01 T03130101  RH  028%=      5-min Rain = 0
KFAS 072340Z 22011KT 31/10 A3004 RMK A01 T03120099  RH  028%=      5-min Rain = 0
KFAS 072345Z 24010KT 31/10 A3005 RMK A01 T03120096  RH  027%=      5-min Rain = 0
KFAS 072350Z 25011G16KT 31/10 A3004 RMK A01 T03110099  RH  028%=      5-min Rain = 0
KFAS 072355Z 24010G15KT 32/10 A3004 RMK A01 T03160098  RH  027%=      5-min Rain = 0
KFAS 080000Z 22015KT 32/09 A3004 RMK A01 T03240092  RH  025%=      5-min Rain = 0
KFAS 080005Z 20015KT 33/09 A3004 RMK A01 T03300094  RH  024%=      5-min Rain = 0
KFAS 080010Z 21013G18KT 33/09 A3003 RMK A01 T03320094  RH  024%=      5-min Rain = 0
KFAS 080015Z 20016G24KT 33/10 A3003 RMK A01 T03300102  RH  025%=      5-min Rain = 0
KFAS 080020Z 19016G21KT 32/11 A3003 RMK A01 T03230108  RH  028%=      5-min Rain = 0
KFAS 080025Z 20015KT 32/11 A3003 RMK A01 T03230113  RH  029%=      5-min Rain = 0
KFAS 080030Z 19015KT 32/12 A3003 RMK A01 T03220115  RH  029%=      5-min Rain = 0
KFAS 080035Z 19014KT 32/12 A3004 RMK A01 T03200115  RH  030%=      5-min Rain = 0
KFAS 080040Z 18013KT 32/12 A3004 RMK A01 T03170119  RH  031%=      5-min Rain = 0
KFAS 080045Z 17013KT 32/12 A3004 RMK A01 T03160120  RH  031%=      5-min Rain = 0
KFAS 080050Z 17015KT 31/12 A3004 RMK A01 T03130121  RH  032%=      5-min Rain = 0
KFAS 080055Z 19015KT 31/12 A3005 RMK A01 T03090120  RH  033%=      5-min Rain = 0
KFAS 080100Z 18013KT 31/12 A3005 RMK A01 T03070120  RH  033%=      5-min Rain = 0
KFAS 080105Z 18014KT 30/12 A3005 RMK A01 T03040117  RH  033%=      5-min Rain = 0
KFAS 080110Z 18012KT 30/12 A3006 RMK A01 T03000118  RH  034%=      5-min Rain = 0
KFAS 080115Z 18010KT 30/12 A3006 RMK A01 T02990118  RH  034%=      5-min Rain = 0
KFAS 080120Z 18008KT 30/12 A3006 RMK A01 T02970118  RH  034%=      5-min Rain = 0
KFAS 080125Z 18008KT 30/12 A3006 RMK A01 T02970116  RH  034%=      5-min Rain = 0
KFAS 080130Z 18009KT 30/11 A3006 RMK A01 T02980113  RH  033%=      5-min Rain = 0
KFAS 080135Z 19012G20KT 30/11 A3006 RMK A01 T02990105  RH  031%=      5-min Rain = 0
KFAS 080140Z 19016G22KT 30/10 A3006 RMK A01 T03000098  RH  029%=      5-min Rain = 0
KFAS 080145Z 19015G20KT 30/10 A3006 RMK A01 T02980100  RH  030%=      5-min Rain = 0
KFAS 080150Z 19015G20KT 30/10 A3007 RMK A01 T02960103  RH  031%=      5-min Rain = 0
KFAS 080155Z 19014G20KT 29/11 A3007 RMK A01 T02930105  RH  032%=      5-min Rain = 0
KFAS 080200Z 19014G20KT 29/11 A3007 RMK A01 T02890107  RH  033%=      5-min Rain = 0
KFAS 080205Z 18012G17KT 29/11 A3007 RMK A01 T02870107  RH  034%=      5-min Rain = 0
KFAS 080210Z 17008KT 28/11 A3008 RMK A01 T02830108  RH  035%=      5-min Rain = 0
KFAS 080215Z 09007KT 28/11 A3009 RMK A01 T02790112  RH  037%=      5-min Rain = 0
KFAS 080220Z 08008KT 27/11 A3009 RMK A01 T02730114  RH  038%=      5-min Rain = 0
KFAS 080225Z 07006KT 27/11 A301 RMK A01 T02720113  RH  038%=      5-min Rain = 0
KFAS 080230Z 07004KT 28/11 A301 RMK A01 T02750111  RH  037%=      5-min Rain = 0
KFAS 080235Z 17003KT 27/11 A301 RMK A01 T02730111  RH  038%=      5-min Rain = 0
KFAS 080240Z 20009G16KT 28/10 A301 RMK A01 T02770104  RH  035%=      5-min Rain = 0
KFAS 080245Z 18007G15KT 28/11 A3011 RMK A01 T02780105  RH  035%=      5-min Rain = 0
KFAS 080250Z 08006KT 28/11 A3013 RMK A01 T02780107  RH  036%=      5-min Rain = 0
KFAS 080255Z 10006KT 27/11 A3013 RMK A01 T02720110  RH  038%=      5-min Rain = 0
KFAS 080300Z 08005G10KT 27/12 A3013 RMK A01 T02690115  RH  039%=      5-min Rain = 0
KFAS 080305Z 13005G10KT 27/11 A3014 RMK A01 T02710108  RH  038%=      5-min Rain = 0
KFAS 080310Z 14005KT 27/11 A3014 RMK A01 T02740105  RH  036%=      5-min Rain = 0
KFAS 080315Z 11007G12KT 27/11 A3015 RMK A01 T02700113  RH  039%=      5-min Rain = 0
KFAS 080320Z 12008KT 27/11 A3015 RMK A01 T02690110  RH  038%=      5-min Rain = 0
KFAS 080325Z 13009KT 27/11 A3015 RMK A01 T02690108  RH  038%=      5-min Rain = 0
KFAS 080330Z 13007KT 27/11 A3015 RMK A01 T02700109  RH  038%=      5-min Rain = 0
KFAS 080335Z 14011KT 27/11 A3015 RMK A01 T02670114  RH  040%=      5-min Rain = 0
KFAS 080340Z 16013KT 26/12 A3016 RMK A01 T02620119  RH  043%=      5-min Rain = 0
KFAS 080345Z 16011KT 25/13 A3016 RMK A01 T02530134  RH  050%=      5-min Rain = 0
KFAS 080350Z 15006KT 24/14 A3016 RMK A01 T02430140  RH  055%=      5-min Rain = 0
KFAS 080355Z 13007G12KT 24/14 A3016 RMK A01 T02360142  RH  058%=      5-min Rain = 0
KFAS 080400Z 14006KT 24/14 A3016 RMK A01 T02350143  RH  059%=      5-min Rain = 0
KFAS 080405Z 17008KT 24/14 A3015 RMK A01 T02380135  RH  055%=      5-min Rain = 0
KFAS 080410Z 15007KT 24/14 A3015 RMK A01 T02410135  RH  053%=      5-min Rain = 0
KFAS 080415Z 11006KT 24/14 A3016 RMK A01 T02390140  RH  056%=      5-min Rain = 0
KFAS 080420Z 14005KT 24/14 A3016 RMK A01 T02350143  RH  059%=      5-min Rain = 0
KFAS 080425Z 17007KT 23/14 A3017 RMK A01 T02320143  RH  060%=      5-min Rain = 0
KFAS 080430Z 19007G12KT 23/14 A3017 RMK A01 T02330138  RH  058%=      5-min Rain = 0
KFAS 080435Z 18013KT 24/13 A3017 RMK A01 T02390133  RH  054%=      5-min Rain = 0
KFAS 080440Z 17013KT 24/13 A3017 RMK A01 T02430130  RH  051%=      5-min Rain = 0
KFAS 080445Z 17012KT 24/13 A3017 RMK A01 T02420130  RH  051%=      5-min Rain = 0
KFAS 080450Z 17011KT 24/13 A3018 RMK A01 T02410130  RH  052%=      5-min Rain = 0
KFAS 080455Z 17011G17KT 24/13 A3018 RMK A01 T02390130  RH  053%=      5-min Rain = 0

Page generated in 0.0103 seconds.